sensor_id;sensor_type;location;lat;lon;timestamp;P1;durP1;ratioP1;P2;durP2;ratioP2
75112;SDS011;63692;47.338;8.520;2022-12-07T05:24:21;39.25;;;18.95;;
75112;SDS011;63692;47.338;8.520;2022-12-07T05:26:47;42.00;;;19.80;;
75112;SDS011;63692;47.338;8.520;2022-12-07T05:29:13;38.63;;;18.85;;
75112;SDS011;63692;47.338;8.520;2022-12-07T05:31:40;41.90;;;20.13;;
75112;SDS011;63692;47.338;8.520;2022-12-07T05:51:38;42.25;;;21.02;;
75112;SDS011;63692;47.338;8.520;2022-12-07T05:54:03;41.15;;;21.13;;
75112;SDS011;63692;47.338;8.520;2022-12-07T05:56:32;44.83;;;21.05;;
75112;SDS011;63692;47.338;8.520;2022-12-07T06:11:44;41.92;;;20.73;;
75112;SDS011;63692;47.338;8.520;2022-12-07T06:14:28;42.08;;;20.42;;
75112;SDS011;63692;47.338;8.520;2022-12-07T06:16:54;43.90;;;21.33;;
75112;SDS011;63692;47.338;8.520;2022-12-07T06:19:20;42.35;;;21.63;;
75112;SDS011;63692;47.338;8.520;2022-12-07T06:21:46;44.53;;;22.35;;
75112;SDS011;63692;47.338;8.520;2022-12-07T06:24:12;44.65;;;22.05;;
75112;SDS011;63692;47.338;8.520;2022-12-07T06:26:38;45.65;;;22.17;;
75112;SDS011;63692;47.338;8.520;2022-12-07T06:29:05;47.22;;;22.77;;
75112;SDS011;63692;47.338;8.520;2022-12-07T06:31:31;50.00;;;22.85;;
75112;SDS011;63692;47.338;8.520;2022-12-07T06:34:00;44.40;;;21.80;;
75112;SDS011;63692;47.338;8.520;2022-12-07T06:36:27;48.05;;;22.33;;
75112;SDS011;63692;47.338;8.520;2022-12-07T06:38:53;48.75;;;21.98;;
75112;SDS011;63692;47.338;8.520;2022-12-07T06:41:19;45.95;;;21.85;;
75112;SDS011;63692;47.338;8.520;2022-12-07T06:43:45;45.95;;;21.88;;
75112;SDS011;63692;47.338;8.520;2022-12-07T06:46:11;45.83;;;21.30;;
75112;SDS011;63692;47.338;8.520;2022-12-07T06:51:05;46.78;;;21.48;;
75112;SDS011;63692;47.338;8.520;2022-12-07T06:53:30;44.80;;;20.98;;
75112;SDS011;63692;47.338;8.520;2022-12-07T06:55:56;47.30;;;21.95;;
75112;SDS011;63692;47.338;8.520;2022-12-07T06:58:22;47.55;;;20.83;;
75112;SDS011;63692;47.338;8.520;2022-12-07T07:00:48;45.28;;;21.52;;
75112;SDS011;63692;47.338;8.520;2022-12-07T07:03:15;53.92;;;23.75;;
75112;SDS011;63692;47.338;8.520;2022-12-07T07:05:41;50.25;;;22.38;;
75112;SDS011;63692;47.338;8.520;2022-12-07T07:08:07;53.17;;;23.38;;
75112;SDS011;63692;47.338;8.520;2022-12-07T07:10:33;53.05;;;23.23;;
75112;SDS011;63692;47.338;8.520;2022-12-07T07:12:59;52.28;;;23.10;;
75112;SDS011;63692;47.338;8.520;2022-12-07T07:15:25;50.67;;;23.15;;
75112;SDS011;63692;47.338;8.520;2022-12-07T07:17:51;52.75;;;22.10;;
75112;SDS011;63692;47.338;8.520;2022-12-07T07:20:16;61.17;;;25.08;;
75112;SDS011;63692;47.338;8.520;2022-12-07T07:22:42;58.85;;;24.27;;
75112;SDS011;63692;47.338;8.520;2022-12-07T07:25:08;54.78;;;23.92;;
75112;SDS011;63692;47.338;8.520;2022-12-07T07:27:33;60.92;;;25.88;;
75112;SDS011;63692;47.338;8.520;2022-12-07T07:29:59;52.42;;;22.17;;
75112;SDS011;63692;47.338;8.520;2022-12-07T07:32:25;53.70;;;23.60;;
75112;SDS011;63692;47.338;8.520;2022-12-07T07:34:50;52.17;;;23.55;;
75112;SDS011;63692;47.338;8.520;2022-12-07T07:37:16;56.13;;;23.80;;
75112;SDS011;63692;47.338;8.520;2022-12-07T07:39:42;64.97;;;25.15;;
75112;SDS011;63692;47.338;8.520;2022-12-07T07:42:07;56.33;;;24.20;;
75112;SDS011;63692;47.338;8.520;2022-12-07T07:44:33;54.28;;;24.02;;
75112;SDS011;63692;47.338;8.520;2022-12-07T07:47:00;50.53;;;22.98;;
75112;SDS011;63692;47.338;8.520;2022-12-07T07:49:25;48.67;;;22.27;;
75112;SDS011;63692;47.338;8.520;2022-12-07T07:51:51;55.80;;;24.67;;
75112;SDS011;63692;47.338;8.520;2022-12-07T07:54:17;55.38;;;24.42;;
75112;SDS011;63692;47.338;8.520;2022-12-07T07:56:43;58.03;;;24.35;;
75112;SDS011;63692;47.338;8.520;2022-12-07T07:59:09;57.30;;;25.33;;
75112;SDS011;63692;47.338;8.520;2022-12-07T08:01:35;60.45;;;25.52;;
75112;SDS011;63692;47.338;8.520;2022-12-07T08:04:01;55.47;;;24.30;;
75112;SDS011;63692;47.338;8.520;2022-12-07T08:06:27;60.63;;;25.42;;
75112;SDS011;63692;47.338;8.520;2022-12-07T08:08:52;61.47;;;25.25;;
75112;SDS011;63692;47.338;8.520;2022-12-07T08:11:18;64.70;;;26.77;;
75112;SDS011;63692;47.338;8.520;2022-12-07T08:13:46;63.22;;;25.30;;
75112;SDS011;63692;47.338;8.520;2022-12-07T08:16:12;63.28;;;26.15;;
75112;SDS011;63692;47.338;8.520;2022-12-07T08:18:39;62.58;;;25.58;;
75112;SDS011;63692;47.338;8.520;2022-12-07T08:21:06;62.50;;;26.25;;
75112;SDS011;63692;47.338;8.520;2022-12-07T08:23:35;65.70;;;27.05;;
75112;SDS011;63692;47.338;8.520;2022-12-07T08:26:01;60.85;;;25.85;;
75112;SDS011;63692;47.338;8.520;2022-12-07T08:28:28;63.08;;;27.63;;
75112;SDS011;63692;47.338;8.520;2022-12-07T08:31:01;71.60;;;28.73;;
75112;SDS011;63692;47.338;8.520;2022-12-07T08:33:37;66.37;;;26.87;;
75112;SDS011;63692;47.338;8.520;2022-12-07T08:36:07;69.47;;;27.17;;
75112;SDS011;63692;47.338;8.520;2022-12-07T08:38:35;66.57;;;26.90;;
75112;SDS011;63692;47.338;8.520;2022-12-07T08:41:01;66.90;;;27.45;;
75112;SDS011;63692;47.338;8.520;2022-12-07T08:43:27;65.57;;;27.60;;
75112;SDS011;63692;47.338;8.520;2022-12-07T08:46:10;63.78;;;26.52;;
75112;SDS011;63692;47.338;8.520;2022-12-07T08:49:03;68.75;;;26.48;;
75112;SDS011;63692;47.338;8.520;2022-12-07T08:51:41;64.47;;;26.88;;
75112;SDS011;63692;47.338;8.520;2022-12-07T08:54:09;67.70;;;26.77;;
75112;SDS011;63692;47.338;8.520;2022-12-07T08:56:36;70.10;;;26.30;;
75112;SDS011;63692;47.338;8.520;2022-12-07T08:59:02;67.30;;;26.17;;
75112;SDS011;63692;47.338;8.520;2022-12-07T09:01:29;67.70;;;27.17;;
75112;SDS011;63692;47.338;8.520;2022-12-07T09:03:55;78.43;;;27.63;;
75112;SDS011;63692;47.338;8.520;2022-12-07T09:06:21;73.90;;;26.63;;
75112;SDS011;63692;47.338;8.520;2022-12-07T09:08:47;73.55;;;27.52;;
75112;SDS011;63692;47.338;8.520;2022-12-07T09:11:16;68.90;;;26.90;;
75112;SDS011;63692;47.338;8.520;2022-12-07T09:13:41;72.72;;;27.63;;
75112;SDS011;63692;47.338;8.520;2022-12-07T09:16:07;77.78;;;27.58;;
75112;SDS011;63692;47.338;8.520;2022-12-07T09:18:32;92.20;;;36.17;;
75112;SDS011;63692;47.338;8.520;2022-12-07T09:20:58;64.85;;;25.90;;
75112;SDS011;63692;47.338;8.520;2022-12-07T09:23:24;70.40;;;26.58;;
75112;SDS011;63692;47.338;8.520;2022-12-07T09:25:50;67.03;;;26.90;;
75112;SDS011;63692;47.338;8.520;2022-12-07T09:28:16;61.55;;;25.17;;
75112;SDS011;63692;47.338;8.520;2022-12-07T09:30:45;64.32;;;26.38;;
75112;SDS011;63692;47.338;8.520;2022-12-07T09:33:14;64.13;;;24.85;;
75112;SDS011;63692;47.338;8.520;2022-12-07T09:35:47;60.47;;;23.70;;
75112;SDS011;63692;47.338;8.520;2022-12-07T09:38:13;62.05;;;26.95;;
75112;SDS011;63692;47.338;8.520;2022-12-07T09:40:39;59.10;;;25.45;;
75112;SDS011;63692;47.338;8.520;2022-12-07T09:43:11;62.38;;;26.70;;
75112;SDS011;63692;47.338;8.520;2022-12-07T09:45:43;66.15;;;26.88;;
75112;SDS011;63692;47.338;8.520;2022-12-07T09:48:53;62.53;;;26.40;;
75112;SDS011;63692;47.338;8.520;2022-12-07T09:51:02;61.45;;;25.67;;
75112;SDS011;63692;47.338;8.520;2022-12-07T09:53:38;61.22;;;24.92;;
75112;SDS011;63692;47.338;8.520;2022-12-07T09:56:04;57.90;;;25.08;;
75112;SDS011;63692;47.338;8.520;2022-12-07T09:58:31;54.92;;;25.10;;
75112;SDS011;63692;47.338;8.520;2022-12-07T10:00:59;57.90;;;24.98;;
75112;SDS011;63692;47.338;8.520;2022-12-07T10:03:37;58.03;;;25.98;;
75112;SDS011;63692;47.338;8.520;2022-12-07T10:06:05;60.88;;;27.17;;
75112;SDS011;63692;47.338;8.520;2022-12-07T10:08:32;55.30;;;24.63;;
75112;SDS011;63692;47.338;8.520;2022-12-07T10:10:58;47.15;;;21.67;;
75112;SDS011;63692;47.338;8.520;2022-12-07T10:13:36;44.92;;;21.65;;
75112;SDS011;63692;47.338;8.520;2022-12-07T10:16:56;49.70;;;22.23;;
75112;SDS011;63692;47.338;8.520;2022-12-07T10:19:17;50.25;;;22.50;;
75112;SDS011;63692;47.338;8.520;2022-12-07T10:22:04;52.25;;;23.92;;
75112;SDS011;63692;47.338;8.520;2022-12-07T10:24:30;49.25;;;24.08;;
75112;SDS011;63692;47.338;8.520;2022-12-07T10:26:56;55.45;;;23.98;;
75112;SDS011;63692;47.338;8.520;2022-12-07T10:29:23;54.67;;;24.77;;
75112;SDS011;63692;47.338;8.520;2022-12-07T10:31:56;51.25;;;24.17;;
75112;SDS011;63692;47.338;8.520;2022-12-07T10:34:28;49.58;;;24.73;;
75112;SDS011;63692;47.338;8.520;2022-12-07T10:39:41;47.95;;;23.05;;
75112;SDS011;63692;47.338;8.520;2022-12-07T10:42:15;44.97;;;22.35;;
75112;SDS011;63692;47.338;8.520;2022-12-07T10:44:45;44.97;;;22.02;;
75112;SDS011;63692;47.338;8.520;2022-12-07T11:00:37;34.90;;;17.90;;
75112;SDS011;63692;47.338;8.520;2022-12-07T11:22:36;31.02;;;16.85;;
75112;SDS011;63692;47.338;8.520;2022-12-07T11:41:12;35.72;;;18.13;;
75112;SDS011;63692;47.338;8.520;2022-12-07T11:43:49;36.28;;;18.55;;
75112;SDS011;63692;47.338;8.520;2022-12-07T11:49:20;33.03;;;18.45;;
75112;SDS011;63692;47.338;8.520;2022-12-07T11:51:46;33.33;;;17.83;;
75112;SDS011;63692;47.338;8.520;2022-12-07T11:54:19;32.58;;;17.52;;
75112;SDS011;63692;47.338;8.520;2022-12-07T11:56:51;35.03;;;17.65;;
75112;SDS011;63692;47.338;8.520;2022-12-07T11:59:27;34.20;;;18.00;;
75112;SDS011;63692;47.338;8.520;2022-12-07T12:07:44;30.85;;;17.65;;
75112;SDS011;63692;47.338;8.520;2022-12-07T12:10:19;33.53;;;18.58;;
75112;SDS011;63692;47.338;8.520;2022-12-07T12:15:40;40.15;;;19.50;;
75112;SDS011;63692;47.338;8.520;2022-12-07T12:18:51;33.17;;;18.65;;
75112;SDS011;63692;47.338;8.520;2022-12-07T12:21:17;35.10;;;18.15;;
75112;SDS011;63692;47.338;8.520;2022-12-07T12:23:56;32.83;;;17.80;;
75112;SDS011;63692;47.338;8.520;2022-12-07T12:26:29;30.20;;;17.30;;
75112;SDS011;63692;47.338;8.520;2022-12-07T12:28:58;33.63;;;18.08;;
75112;SDS011;63692;47.338;8.520;2022-12-07T12:31:35;31.02;;;16.90;;
75112;SDS011;63692;47.338;8.520;2022-12-07T12:36:58;32.83;;;17.70;;
75112;SDS011;63692;47.338;8.520;2022-12-07T12:39:24;30.70;;;17.33;;
75112;SDS011;63692;47.338;8.520;2022-12-07T12:41:51;30.48;;;17.40;;
75112;SDS011;63692;47.338;8.520;2022-12-07T12:54:19;31.65;;;16.17;;
75112;SDS011;63692;47.338;8.520;2022-12-07T12:59:36;33.53;;;18.20;;
75112;SDS011;63692;47.338;8.520;2022-12-07T13:10:20;32.90;;;16.45;;
75112;SDS011;63692;47.338;8.520;2022-12-07T13:15:34;28.85;;;17.08;;
75112;SDS011;63692;47.338;8.520;2022-12-07T13:18:01;32.67;;;16.88;;
75112;SDS011;63692;47.338;8.520;2022-12-07T13:22:58;30.08;;;17.48;;
75112;SDS011;63692;47.338;8.520;2022-12-07T13:25:36;29.75;;;16.63;;
75112;SDS011;63692;47.338;8.520;2022-12-07T13:30:43;29.52;;;17.10;;
75112;SDS011;63692;47.338;8.520;2022-12-07T13:33:15;29.77;;;17.52;;
75112;SDS011;63692;47.338;8.520;2022-12-07T13:35:43;29.05;;;16.98;;
75112;SDS011;63692;47.338;8.520;2022-12-07T13:38:47;28.60;;;17.02;;
75112;SDS011;63692;47.338;8.520;2022-12-07T13:41:03;30.60;;;16.95;;
75112;SDS011;63692;47.338;8.520;2022-12-07T13:43:47;30.60;;;17.08;;
75112;SDS011;63692;47.338;8.520;2022-12-07T13:46:16;27.80;;;15.80;;
75112;SDS011;63692;47.338;8.520;2022-12-07T13:48:46;31.08;;;17.42;;
75112;SDS011;63692;47.338;8.520;2022-12-07T13:51:26;30.13;;;16.75;;
75112;SDS011;63692;47.338;8.520;2022-12-07T13:53:55;29.90;;;16.52;;
75112;SDS011;63692;47.338;8.520;2022-12-07T13:56:27;26.63;;;16.08;;
75112;SDS011;63692;47.338;8.520;2022-12-07T13:58:57;28.38;;;16.38;;
75112;SDS011;63692;47.338;8.520;2022-12-07T14:01:24;30.23;;;16.65;;
75112;SDS011;63692;47.338;8.520;2022-12-07T14:03:50;28.33;;;16.60;;
75112;SDS011;63692;47.338;8.520;2022-12-07T14:06:28;30.42;;;15.57;;
75112;SDS011;63692;47.338;8.520;2022-12-07T14:09:16;26.50;;;15.25;;
75112;SDS011;63692;47.338;8.520;2022-12-07T14:11:47;28.17;;;14.98;;
75112;SDS011;63692;47.338;8.520;2022-12-07T14:14:16;27.45;;;15.60;;
75112;SDS011;63692;47.338;8.520;2022-12-07T14:16:55;26.10;;;14.15;;
75112;SDS011;63692;47.338;8.520;2022-12-07T14:22:25;29.85;;;17.88;;
75112;SDS011;63692;47.338;8.520;2022-12-07T14:24:59;31.45;;;19.05;;
75112;SDS011;63692;47.338;8.520;2022-12-07T14:27:29;27.30;;;14.77;;
75112;SDS011;63692;47.338;8.520;2022-12-07T14:29:58;29.02;;;15.38;;
75112;SDS011;63692;47.338;8.520;2022-12-07T14:32:26;26.13;;;14.55;;
75112;SDS011;63692;47.338;8.520;2022-12-07T14:34:58;27.17;;;14.95;;
75112;SDS011;63692;47.338;8.520;2022-12-07T14:37:35;27.00;;;14.82;;
75112;SDS011;63692;47.338;8.520;2022-12-07T14:40:01;25.35;;;14.68;;
75112;SDS011;63692;47.338;8.520;2022-12-07T14:42:27;28.17;;;15.57;;
75112;SDS011;63692;47.338;8.520;2022-12-07T14:44:55;28.20;;;14.40;;
75112;SDS011;63692;47.338;8.520;2022-12-07T14:47:22;25.73;;;14.60;;
75112;SDS011;63692;47.338;8.520;2022-12-07T14:49:48;26.55;;;14.60;;
75112;SDS011;63692;47.338;8.520;2022-12-07T14:52:17;29.60;;;14.65;;
75112;SDS011;63692;47.338;8.520;2022-12-07T14:54:46;23.85;;;13.82;;
75112;SDS011;63692;47.338;8.520;2022-12-07T14:57:11;27.90;;;15.27;;
75112;SDS011;63692;47.338;8.520;2022-12-07T14:59:37;26.15;;;14.43;;
75112;SDS011;63692;47.338;8.520;2022-12-07T15:02:03;27.13;;;15.52;;
75112;SDS011;63692;47.338;8.520;2022-12-07T15:04:29;27.45;;;15.05;;
75112;SDS011;63692;47.338;8.520;2022-12-07T15:06:56;27.23;;;14.95;;
75112;SDS011;63692;47.338;8.520;2022-12-07T15:09:23;30.90;;;15.45;;
75112;SDS011;63692;47.338;8.520;2022-12-07T15:11:48;24.92;;;14.70;;
75112;SDS011;63692;47.338;8.520;2022-12-07T15:14:14;26.67;;;15.70;;
75112;SDS011;63692;47.338;8.520;2022-12-07T15:16:40;27.83;;;15.57;;
75112;SDS011;63692;47.338;8.520;2022-12-07T15:19:14;27.05;;;15.73;;
75112;SDS011;63692;47.338;8.520;2022-12-07T15:21:42;28.02;;;14.50;;
75112;SDS011;63692;47.338;8.520;2022-12-07T15:24:08;27.85;;;15.40;;
75112;SDS011;63692;47.338;8.520;2022-12-07T15:26:35;26.73;;;14.93;;
75112;SDS011;63692;47.338;8.520;2022-12-07T15:29:02;25.95;;;15.25;;
75112;SDS011;63692;47.338;8.520;2022-12-07T15:31:28;25.15;;;14.63;;
75112;SDS011;63692;47.338;8.520;2022-12-07T15:33:53;27.00;;;16.05;;
75112;SDS011;63692;47.338;8.520;2022-12-07T15:36:20;29.83;;;15.20;;
75112;SDS011;63692;47.338;8.520;2022-12-07T15:38:47;26.20;;;14.52;;
75112;SDS011;63692;47.338;8.520;2022-12-07T15:41:13;25.15;;;15.20;;
75112;SDS011;63692;47.338;8.520;2022-12-07T15:43:39;29.05;;;17.55;;
75112;SDS011;63692;47.338;8.520;2022-12-07T15:46:28;24.90;;;13.98;;
75112;SDS011;63692;47.338;8.520;2022-12-07T15:48:55;26.13;;;15.40;;
75112;SDS011;63692;47.338;8.520;2022-12-07T15:51:21;25.45;;;14.90;;
75112;SDS011;63692;47.338;8.520;2022-12-07T15:53:46;26.90;;;14.68;;
75112;SDS011;63692;47.338;8.520;2022-12-07T15:56:12;27.92;;;14.00;;
75112;SDS011;63692;47.338;8.520;2022-12-07T15:58:37;24.67;;;13.55;;
75112;SDS011;63692;47.338;8.520;2022-12-07T16:01:13;24.08;;;14.05;;
75112;SDS011;63692;47.338;8.520;2022-12-07T16:03:39;23.38;;;14.73;;
75112;SDS011;63692;47.338;8.520;2022-12-07T16:06:05;25.60;;;14.65;;
75112;SDS011;63692;47.338;8.520;2022-12-07T16:08:31;26.08;;;14.68;;
75112;SDS011;63692;47.338;8.520;2022-12-07T16:10:57;24.92;;;14.10;;
75112;SDS011;63692;47.338;8.520;2022-12-07T16:13:22;22.80;;;13.73;;
75112;SDS011;63692;47.338;8.520;2022-12-07T16:15:48;25.33;;;14.25;;
75112;SDS011;63692;47.338;8.520;2022-12-07T16:18:14;25.33;;;13.73;;
75112;SDS011;63692;47.338;8.520;2022-12-07T16:20:39;25.38;;;13.82;;
75112;SDS011;63692;47.338;8.520;2022-12-07T16:23:05;24.77;;;14.32;;
75112;SDS011;63692;47.338;8.520;2022-12-07T16:25:30;24.88;;;13.75;;
75112;SDS011;63692;47.338;8.520;2022-12-07T16:27:56;23.05;;;13.50;;
75112;SDS011;63692;47.338;8.520;2022-12-07T16:30:22;23.60;;;13.70;;
75112;SDS011;63692;47.338;8.520;2022-12-07T16:32:47;26.30;;;14.13;;
75112;SDS011;63692;47.338;8.520;2022-12-07T16:35:13;22.42;;;13.13;;
75112;SDS011;63692;47.338;8.520;2022-12-07T16:37:38;24.00;;;13.75;;
75112;SDS011;63692;47.338;8.520;2022-12-07T16:40:06;24.70;;;13.93;;
75112;SDS011;63692;47.338;8.520;2022-12-07T16:42:33;24.38;;;14.18;;
75112;SDS011;63692;47.338;8.520;2022-12-07T16:45:00;27.38;;;13.73;;
75112;SDS011;63692;47.338;8.520;2022-12-07T16:47:26;24.50;;;14.10;;
75112;SDS011;63692;47.338;8.520;2022-12-07T16:49:52;25.02;;;13.90;;
75112;SDS011;63692;47.338;8.520;2022-12-07T16:52:18;25.65;;;13.40;;
75112;SDS011;63692;47.338;8.520;2022-12-07T16:54:44;25.02;;;13.32;;
75112;SDS011;63692;47.338;8.520;2022-12-07T16:57:10;27.95;;;14.15;;
75112;SDS011;63692;47.338;8.520;2022-12-07T16:59:36;22.63;;;13.43;;
75112;SDS011;63692;47.338;8.520;2022-12-07T17:02:01;22.38;;;13.55;;
75112;SDS011;63692;47.338;8.520;2022-12-07T17:04:28;25.90;;;14.48;;
75112;SDS011;63692;47.338;8.520;2022-12-07T17:06:54;24.73;;;14.23;;
75112;SDS011;63692;47.338;8.520;2022-12-07T17:09:24;23.10;;;13.57;;
75112;SDS011;63692;47.338;8.520;2022-12-07T17:11:49;23.83;;;13.43;;
75112;SDS011;63692;47.338;8.520;2022-12-07T17:14:15;23.95;;;13.30;;
75112;SDS011;63692;47.338;8.520;2022-12-07T17:19:25;23.92;;;12.35;;
75112;SDS011;63692;47.338;8.520;2022-12-07T17:21:51;22.55;;;13.48;;
75112;SDS011;63692;47.338;8.520;2022-12-07T17:24:16;26.08;;;14.18;;
75112;SDS011;63692;47.338;8.520;2022-12-07T17:26:42;24.00;;;13.80;;
75112;SDS011;63692;47.338;8.520;2022-12-07T17:29:10;23.33;;;13.48;;
75112;SDS011;63692;47.338;8.520;2022-12-07T17:31:38;23.35;;;13.02;;
75112;SDS011;63692;47.338;8.520;2022-12-07T17:34:08;24.55;;;13.15;;
75112;SDS011;63692;47.338;8.520;2022-12-07T17:39:08;23.13;;;13.25;;
75112;SDS011;63692;47.338;8.520;2022-12-07T17:41:34;19.65;;;11.70;;
75112;SDS011;63692;47.338;8.520;2022-12-07T17:44:20;23.85;;;12.05;;
75112;SDS011;63692;47.338;8.520;2022-12-07T17:46:46;20.73;;;12.52;;
75112;SDS011;63692;47.338;8.520;2022-12-07T17:49:14;26.42;;;13.75;;
75112;SDS011;63692;47.338;8.520;2022-12-07T17:51:40;24.10;;;13.27;;
75112;SDS011;63692;47.338;8.520;2022-12-07T17:54:24;25.40;;;13.20;;
75112;SDS011;63692;47.338;8.520;2022-12-07T17:56:50;25.15;;;13.27;;
75112;SDS011;63692;47.338;8.520;2022-12-07T17:59:16;23.83;;;12.43;;
75112;SDS011;63692;47.338;8.520;2022-12-07T18:01:42;21.73;;;12.95;;
75112;SDS011;63692;47.338;8.520;2022-12-07T18:04:09;23.02;;;13.00;;
75112;SDS011;63692;47.338;8.520;2022-12-07T18:09:03;25.35;;;12.73;;
75112;SDS011;63692;47.338;8.520;2022-12-07T18:11:29;20.83;;;12.25;;
75112;SDS011;63692;47.338;8.520;2022-12-07T18:13:56;27.35;;;13.15;;
75112;SDS011;63692;47.338;8.520;2022-12-07T18:16:23;21.20;;;12.52;;
75112;SDS011;63692;47.338;8.520;2022-12-07T18:18:51;22.83;;;12.52;;
75112;SDS011;63692;47.338;8.520;2022-12-07T18:21:24;22.48;;;12.90;;
75112;SDS011;63692;47.338;8.520;2022-12-07T18:23:52;24.40;;;12.88;;
75112;SDS011;63692;47.338;8.520;2022-12-07T18:26:20;23.42;;;12.15;;
75112;SDS011;63692;47.338;8.520;2022-12-07T18:38:43;22.13;;;12.13;;
75112;SDS011;63692;47.338;8.520;2022-12-07T18:46:11;22.38;;;12.38;;
75112;SDS011;63692;47.338;8.520;2022-12-07T18:51:04;23.85;;;11.73;;
75112;SDS011;63692;47.338;8.520;2022-12-07T18:53:31;25.05;;;12.45;;
75112;SDS011;63692;47.338;8.520;2022-12-07T18:58:35;24.48;;;13.45;;
75112;SDS011;63692;47.338;8.520;2022-12-07T19:01:01;23.25;;;12.43;;
75112;SDS011;63692;47.338;8.520;2022-12-07T19:03:27;23.85;;;12.77;;
75112;SDS011;63692;47.338;8.520;2022-12-07T19:05:55;26.25;;;13.23;;
75112;SDS011;63692;47.338;8.520;2022-12-07T19:08:22;23.02;;;13.13;;
75112;SDS011;63692;47.338;8.520;2022-12-07T19:10:51;25.55;;;13.38;;
75112;SDS011;63692;47.338;8.520;2022-12-07T19:13:17;21.08;;;12.02;;
75112;SDS011;63692;47.338;8.520;2022-12-07T19:15:43;24.35;;;12.85;;
75112;SDS011;63692;47.338;8.520;2022-12-07T19:18:08;21.05;;;12.60;;
75112;SDS011;63692;47.338;8.520;2022-12-07T19:20:34;24.20;;;12.75;;
75112;SDS011;63692;47.338;8.520;2022-12-07T19:22:59;23.27;;;12.45;;
75112;SDS011;63692;47.338;8.520;2022-12-07T19:25:25;21.77;;;12.85;;
75112;SDS011;63692;47.338;8.520;2022-12-07T19:27:51;25.77;;;13.73;;
75112;SDS011;63692;47.338;8.520;2022-12-07T19:30:17;25.23;;;12.93;;
75112;SDS011;63692;47.338;8.520;2022-12-07T19:32:42;25.38;;;14.32;;
75112;SDS011;63692;47.338;8.520;2022-12-07T19:35:08;26.70;;;13.85;;
75112;SDS011;63692;47.338;8.520;2022-12-07T19:37:34;26.05;;;14.48;;
75112;SDS011;63692;47.338;8.520;2022-12-07T19:42:28;23.80;;;12.98;;
75112;SDS011;63692;47.338;8.520;2022-12-07T19:44:59;25.52;;;12.77;;
75112;SDS011;63692;47.338;8.520;2022-12-07T19:47:24;25.45;;;13.07;;
75112;SDS011;63692;47.338;8.520;2022-12-07T19:57:14;30.05;;;14.30;;
75112;SDS011;63692;47.338;8.520;2022-12-07T19:59:40;26.52;;;14.52;;
75112;SDS011;63692;47.338;8.520;2022-12-07T20:02:08;28.67;;;14.88;;
75112;SDS011;63692;47.338;8.520;2022-12-07T20:04:37;24.30;;;14.13;;
75112;SDS011;63692;47.338;8.520;2022-12-07T20:07:02;26.48;;;14.75;;
75112;SDS011;63692;47.338;8.520;2022-12-07T20:09:28;26.13;;;13.48;;
75112;SDS011;63692;47.338;8.520;2022-12-07T20:11:53;29.10;;;14.43;;
75112;SDS011;63692;47.338;8.520;2022-12-07T20:14:38;26.65;;;12.93;;
75112;SDS011;63692;47.338;8.520;2022-12-07T20:17:03;26.20;;;13.98;;
75112;SDS011;63692;47.338;8.520;2022-12-07T20:19:29;30.80;;;15.85;;
75112;SDS011;63692;47.338;8.520;2022-12-07T20:21:55;30.55;;;16.00;;
75112;SDS011;63692;47.338;8.520;2022-12-07T20:24:22;28.38;;;15.13;;
75112;SDS011;63692;47.338;8.520;2022-12-07T20:26:50;27.67;;;15.15;;
75112;SDS011;63692;47.338;8.520;2022-12-07T20:29:18;26.92;;;13.95;;
75112;SDS011;63692;47.338;8.520;2022-12-07T20:34:13;26.55;;;14.70;;
75112;SDS011;63692;47.338;8.520;2022-12-07T20:36:39;26.15;;;13.70;;
75112;SDS011;63692;47.338;8.520;2022-12-07T20:39:05;26.90;;;14.23;;
75112;SDS011;63692;47.338;8.520;2022-12-07T20:41:32;29.65;;;14.88;;
